Time;durP1;ratioP1;P1;durP2;ratioP2;P2;SDS_P1;SDS_P2;PMS_P1;PMS_P2;Temp;Humidity;BMP_temperature;BMP_pressure;BME280_temperature;BME280_humidity;BME280_pressure;Samples;Min_cycle;Max_cycle;Signal;HPM_P1;HPM_P2
2022/06/06 00:00:39;;;;;;;19.30;12.07;;;;;;;19.77;94.46;98910.41;5088657;28;20711;-90
2022/06/06 00:03:05;;;;;;;17.10;12.40;;;;;;;19.80;94.82;98917.03;5088809;28;20212;-89
2022/06/06 00:05:33;;;;;;;19.80;12.17;;;;;;;19.78;94.83;98931.97;5088558;28;20214;-88
2022/06/06 00:07:59;;;;;;;20.27;12.47;;;;;;;19.77;94.87;98938.94;5088447;28;20582;-83
2022/06/06 00:10:25;;;;;;;17.23;12.10;;;;;;;19.77;95.19;98953.69;5088796;28;20234;-85
2022/06/06 00:12:52;;;;;;;16.60;11.80;;;;;;;19.80;95.56;98961.13;5088819;28;20228;-90
2022/06/06 00:15:18;;;;;;;17.07;12.17;;;;;;;19.79;95.47;98967.31;5088429;28;20206;-90
2022/06/06 00:17:44;;;;;;;16.73;11.53;;;;;;;19.84;95.60;98970.19;5088373;28;20229;-90
2022/06/06 00:20:11;;;;;;;19.23;12.73;;;;;;;19.85;95.88;98974.41;5088686;28;20638;-86
2022/06/06 00:22:38;;;;;;;21.80;12.80;;;;;;;19.85;96.65;98975.22;5088897;28;20238;-85
2022/06/06 00:25:05;;;;;;;20.93;12.73;;;;;;;19.84;97.86;98957.22;5088630;28;20217;-90
2022/06/06 00:27:32;;;;;;;20.83;12.97;;;;;;;19.70;98.95;98945.00;5088173;28;20281;-89
2022/06/06 00:29:58;;;;;;;21.83;12.67;;;;;;;19.54;100.00;98946.69;5088339;28;20227;-92
2022/06/06 00:35:09;;;;;;;18.50;13.07;;;;;;;19.46;100.00;98944.16;5088988;28;20288;-93
2022/06/06 00:37:38;;;;;;;23.03;14.13;;;;;;;19.41;100.00;98947.25;5089178;28;20717;-89
2022/06/06 00:40:09;;;;;;;20.20;13.33;;;;;;;19.34;100.00;98950.69;5088719;28;20237;-88
2022/06/06 00:42:39;;;;;;;24.27;14.07;;;;;;;19.30;100.00;98947.63;5089008;28;20543;-88
2022/06/06 00:45:25;;;;;;;20.27;12.77;;;;;;;19.28;100.00;98947.00;5088403;28;20213;-89
2022/06/06 00:47:56;;;;;;;18.90;13.13;;;;;;;19.19;100.00;98943.63;5088776;28;20216;-87
2022/06/06 00:50:28;;;;;;;22.87;14.30;;;;;;;19.17;100.00;98945.59;5088583;28;20220;-92
2022/06/06 00:52:57;;;;;;;20.60;14.03;;;;;;;19.07;100.00;98942.41;5088915;28;20280;-91
2022/06/06 00:55:27;;;;;;;21.73;14.07;;;;;;;19.02;100.00;98946.47;5088096;28;20213;-88
2022/06/06 00:57:58;;;;;;;21.20;14.10;;;;;;;19.01;100.00;98935.31;5088482;28;20609;-91
2022/06/06 01:00:25;;;;;;;20.73;13.90;;;;;;;18.99;100.00;98927.72;5088245;28;20226;-91
2022/06/06 01:02:54;;;;;;;24.67;14.47;;;;;;;18.95;100.00;98915.25;5088589;28;20289;-86
2022/06/06 01:05:21;;;;;;;21.33;13.63;;;;;;;19.02;100.00;98912.78;5088536;28;20212;-86
2022/06/06 01:07:47;;;;;;;19.60;13.47;;;;;;;18.99;100.00;98900.97;5090160;28;20234;-88
2022/06/06 01:10:15;;;;;;;22.07;14.13;;;;;;;18.99;100.00;98882.84;5092015;28;20239;-89
2022/06/06 01:12:43;;;;;;;22.83;13.67;;;;;;;18.96;100.00;98888.34;5091610;28;20256;-88
2022/06/06 01:15:13;;;;;;;23.83;14.10;;;;;;;18.92;100.00;98920.78;5092123;28;20206;-87
2022/06/06 01:17:47;;;;;;;22.20;13.07;;;;;;;18.88;100.00;98951.38;5092464;28;20227;-88
2022/06/06 01:20:32;;;;;;;23.23;14.10;;;;;;;18.94;100.00;98957.69;5091808;28;20745;-88
2022/06/06 01:23:35;;;;;;;24.87;14.33;;;;;;;18.98;100.00;98953.78;5091897;28;20224;-87
2022/06/06 01:26:36;;;;;;;22.27;13.90;;;;;;;18.86;100.00;98939.56;5008222;28;20232;-91
2022/06/06 01:29:08;;;;;;;22.73;13.97;;;;;;;18.84;100.00;98939.72;5092162;28;20222;-92
2022/06/06 01:31:40;;;;;;;24.20;14.97;;;;;;;18.84;100.00;98934.56;5092037;28;20232;-91
2022/06/06 01:34:09;;;;;;;23.23;13.77;;;;;;;18.84;100.00;98925.97;5091720;28;20216;-92
2022/06/06 01:36:39;;;;;;;19.50;13.63;;;;;;;18.77;100.00;98929.25;5091759;28;20293;-92
2022/06/06 01:39:09;;;;;;;20.83;13.83;;;;;;;18.78;100.00;98922.28;5091433;28;20271;-87
2022/06/06 01:41:48;;;;;;;21.50;13.77;;;;;;;18.78;100.00;98893.78;5091345;28;20231;-90
2022/06/06 01:44:25;;;;;;;19.67;12.40;;;;;;;18.76;100.00;98883.59;5091323;28;20215;-86
2022/06/06 01:46:53;;;;;;;20.47;14.23;;;;;;;18.72;100.00;98905.59;5091269;28;20680;-91
2022/06/06 01:49:23;;;;;;;21.80;13.20;;;;;;;18.72;100.00;98938.44;5091120;28;20259;-91
2022/06/06 01:51:59;;;;;;;20.50;13.33;;;;;;;18.64;100.00;98983.28;5091066;28;20271;-91
2022/06/06 01:54:25;;;;;;;21.67;13.10;;;;;;;18.71;100.00;99028.28;5091175;28;20241;-93
2022/06/06 01:56:52;;;;;;;21.70;13.87;;;;;;;18.74;100.00;99027.19;5091310;28;20852;-91
2022/06/06 01:59:19;;;;;;;23.07;14.83;;;;;;;18.69;100.00;99004.34;5091411;28;20602;-88
2022/06/06 02:01:45;;;;;;;26.77;15.10;;;;;;;18.67;100.00;98964.84;5090716;28;20349;-85
2022/06/06 02:04:12;;;;;;;25.97;14.87;;;;;;;18.58;100.00;98914.03;5090646;28;20226;-87
2022/06/06 02:06:39;;;;;;;25.10;15.17;;;;;;;18.47;100.00;98880.75;5090611;28;20244;-87
2022/06/06 02:09:05;;;;;;;25.47;15.10;;;;;;;18.40;100.00;98916.03;5090619;28;20217;-86
2022/06/06 02:11:31;;;;;;;23.43;14.50;;;;;;;18.43;100.00;98889.81;5090656;28;20622;-89
2022/06/06 02:13:57;;;;;;;24.23;14.77;;;;;;;18.37;100.00;98818.00;5090789;28;20216;-88
2022/06/06 02:16:25;;;;;;;22.93;14.40;;;;;;;18.28;100.00;98737.81;5090739;28;20225;-85
2022/06/06 02:18:51;;;;;;;24.77;14.63;;;;;;;18.20;100.00;98807.72;5090121;28;20214;-88
2022/06/06 02:21:17;;;;;;;25.70;14.53;;;;;;;18.22;100.00;98880.00;5090451;28;20240;-84
2022/06/06 02:23:45;;;;;;;26.40;15.73;;;;;;;18.23;100.00;98864.31;5090541;28;20239;-91
2022/06/06 02:26:11;;;;;;;25.70;15.47;;;;;;;18.23;100.00;98856.53;5090529;28;20325;-89
2022/06/06 02:28:38;;;;;;;25.93;16.10;;;;;;;18.19;100.00;98868.22;5090467;28;20218;-88
2022/06/06 02:31:04;;;;;;;26.50;16.03;;;;;;;18.21;100.00;98868.03;5090184;28;20241;-88
2022/06/06 02:33:32;;;;;;;28.13;16.90;;;;;;;18.23;100.00;98861.72;5090143;28;20688;-83
2022/06/06 02:36:00;;;;;;;29.47;17.43;;;;;;;18.21;100.00;98858.50;5090643;28;20291;-88
2022/06/06 02:38:29;;;;;;;28.07;17.40;;;;;;;18.21;100.00;98870.63;5090115;28;20765;-85
2022/06/06 02:41:07;;;;;;;28.23;17.40;;;;;;;18.20;100.00;98890.50;5089933;28;20256;-89
2022/06/06 02:43:34;;;;;;;30.27;18.47;;;;;;;18.20;100.00;98900.06;5090227;28;20258;-84
2022/06/06 02:46:01;;;;;;;28.37;18.13;;;;;;;18.17;100.00;98921.91;5089861;28;20249;-90
2022/06/06 02:48:28;;;;;;;31.67;17.87;;;;;;;18.14;100.00;98919.63;5090116;28;20628;-88
2022/06/06 02:50:54;;;;;;;30.73;18.47;;;;;;;18.16;100.00;98915.13;5089600;28;20230;-83
2022/06/06 02:53:21;;;;;;;31.00;17.63;;;;;;;18.16;100.00;98899.59;5089695;28;20436;-87
2022/06/06 02:55:50;;;;;;;29.33;17.30;;;;;;;18.17;100.00;98901.19;5090007;28;20316;-87
2022/06/06 02:58:16;;;;;;;29.20;17.93;;;;;;;18.22;100.00;98919.63;5089735;28;20210;-89
2022/06/06 03:00:44;;;;;;;29.37;17.27;;;;;;;18.20;100.00;98931.13;5089913;28;20218;-84
2022/06/06 03:03:10;;;;;;;28.33;16.80;;;;;;;18.17;100.00;98941.78;5089845;28;20214;-89
2022/06/06 03:05:53;;;;;;;29.40;17.37;;;;;;;18.18;100.00;98944.22;5089960;28;20214;-89
2022/06/06 03:08:35;;;;;;;24.70;16.03;;;;;;;18.18;100.00;98944.22;5089760;28;20700;-89
2022/06/06 03:11:14;;;;;;;25.50;15.33;;;;;;;18.18;100.00;98954.59;5089442;28;20233;-83
2022/06/06 03:13:59;;;;;;;24.97;15.20;;;;;;;18.12;100.00;98955.22;5089675;28;20217;-86
2022/06/06 03:22:26;;;;;;;20.90;13.47;;;;;;;18.02;100.00;98975.28;5089641;28;20631;-85
2022/06/06 03:25:02;;;;;;;20.10;13.33;;;;;;;18.03;100.00;98976.88;5089358;28;20692;-88
2022/06/06 03:27:44;;;;;;;20.53;13.70;;;;;;;18.02;100.00;98975.28;5089398;28;20238;-89
2022/06/06 03:30:20;;;;;;;19.07;12.70;;;;;;;17.97;100.00;98977.53;5088448;28;20702;-84
2022/06/06 03:32:59;;;;;;;20.20;13.27;;;;;;;18.00;100.00;98982.38;5089575;28;20230;-84
2022/06/06 03:35:36;;;;;;;19.43;12.53;;;;;;;18.01;100.00;98989.19;5089446;28;20355;-84
2022/06/06 03:38:07;;;;;;;16.37;11.67;;;;;;;18.00;100.00;98992.72;5089368;28;20213;-84
2022/06/06 03:40:43;;;;;;;18.67;12.17;;;;;;;18.04;100.00;98994.03;5089509;28;20213;-84
2022/06/06 03:43:22;;;;;;;17.47;11.23;;;;;;;18.00;100.00;98995.31;5089245;28;20221;-89
2022/06/06 03:45:54;;;;;;;16.00;10.53;;;;;;;17.87;100.00;98994.00;5089322;28;20233;-89
2022/06/06 03:48:31;;;;;;;12.63;9.93;;;;;;;17.84;100.00;99003.88;5089258;28;20217;-88
2022/06/06 03:51:10;;;;;;;14.50;9.80;;;;;;;17.86;100.00;99007.13;5089075;28;20234;-89
2022/06/06 03:53:50;;;;;;;13.00;9.43;;;;;;;17.80;100.00;99007.72;5088890;28;20246;-89
2022/06/06 03:56:29;;;;;;;12.17;9.33;;;;;;;17.76;100.00;99022.72;5088981;28;20232;-90
2022/06/06 03:58:56;;;;;;;14.80;9.50;;;;;;;17.79;100.00;99027.63;5088791;28;20223;-89
2022/06/06 04:01:24;;;;;;;14.03;9.90;;;;;;;17.79;100.00;99031.97;5088733;28;20599;-89
2022/06/06 04:03:50;;;;;;;14.63;10.07;;;;;;;17.82;100.00;99032.47;5088978;28;20221;-90
2022/06/06 04:06:18;;;;;;;12.57;9.70;;;;;;;17.80;100.00;99029.25;5088970;28;20221;-90
2022/06/06 04:08:44;;;;;;;16.13;10.03;;;;;;;17.85;100.00;99037.31;5088736;28;20266;-90
2022/06/06 04:11:26;;;;;;;15.60;10.33;;;;;;;17.88;100.00;99034.41;5088776;28;20225;-86
2022/06/06 04:14:10;;;;;;;14.83;10.17;;;;;;;17.98;100.00;99046.41;5089014;28;20295;-86
2022/06/06 04:16:50;;;;;;;14.60;11.03;;;;;;;18.06;100.00;99060.19;5088784;28;20225;-91
2022/06/06 04:19:28;;;;;;;13.97;10.60;;;;;;;18.08;100.00;99070.34;5088627;28;20214;-90
2022/06/06 04:22:07;;;;;;;14.73;10.40;;;;;;;18.20;100.00;99076.03;5088735;28;20236;-89
2022/06/06 04:24:51;;;;;;;13.97;10.23;;;;;;;18.23;100.00;99076.50;5088669;28;20205;-89
2022/06/06 04:27:27;;;;;;;14.80;10.73;;;;;;;18.29;100.00;99085.41;5088737;28;20271;-90
2022/06/06 04:30:01;;;;;;;13.03;9.80;;;;;;;18.27;100.00;99085.59;5088738;28;20210;-90
2022/06/06 04:32:42;;;;;;;13.60;10.50;;;;;;;18.33;100.00;99089.31;5088477;28;20234;-89
2022/06/06 04:35:18;;;;;;;14.40;9.77;;;;;;;18.36;100.00;99080.44;5088507;28;20221;-88
2022/06/06 04:37:51;;;;;;;14.17;9.90;;;;;;;18.33;100.00;99082.34;5088368;28;20240;-88
2022/06/06 04:40:25;;;;;;;19.03;9.93;;;;;;;18.33;100.00;99078.97;5088353;28;20240;-88
2022/06/06 04:43:09;;;;;;;12.17;9.33;;;;;;;18.32;100.00;99079.91;5092090;28;20609;-87
2022/06/06 04:45:40;;;;;;;13.77;9.80;;;;;;;18.38;100.00;99079.28;5092020;28;20728;-87
2022/06/06 04:48:08;;;;;;;12.37;9.60;;;;;;;18.46;100.00;99081.06;5092157;28;20226;-89
2022/06/06 04:50:36;;;;;;;12.60;9.97;;;;;;;18.56;100.00;99089.50;5092018;28;20218;-90
2022/06/06 04:53:10;;;;;;;14.57;9.67;;;;;;;18.69;100.00;99091.59;5091452;28;20230;-86
2022/06/06 04:55:40;;;;;;;12.17;8.23;;;;;;;18.73;100.00;99090.28;5091833;28;20213;-90
2022/06/06 04:58:09;;;;;;;10.77;8.43;;;;;;;18.77;100.00;99083.84;5092032;28;20276;-85
2022/06/06 05:00:37;;;;;;;12.90;8.43;;;;;;;18.89;100.00;99086.91;5091732;28;20697;-90
2022/06/06 05:03:03;;;;;;;10.83;7.73;;;;;;;18.98;100.00;99085.91;5091763;28;20311;-87
2022/06/06 05:05:40;;;;;;;10.23;7.57;;;;;;;18.97;100.00;99095.47;5091570;28;20212;-91
2022/06/06 05:08:17;;;;;;;8.97;7.57;;;;;;;18.96;100.00;99093.84;5091874;28;20229;-85
2022/06/06 05:10:59;;;;;;;7.70;6.13;;;;;;;18.96;100.00;99100.81;5091724;28;20210;-90
2022/06/06 05:13:54;;;;;;;8.43;5.07;;;;;;;18.91;100.00;99096.13;5091559;28;20715;-89
2022/06/06 05:16:36;;;;;;;7.57;4.13;;;;;;;18.85;100.00;99103.72;5091512;28;20311;-89
2022/06/06 05:19:20;;;;;;;5.63;4.40;;;;;;;18.69;100.00;99097.56;5090886;28;20218;-91
2022/06/06 05:22:07;;;;;;;4.50;3.63;;;;;;;18.70;100.00;99103.56;5091615;28;20246;-91
2022/06/06 05:24:50;;;;;;;4.37;3.50;;;;;;;18.69;100.00;99113.09;5091369;28;20712;-84
2022/06/06 05:27:38;;;;;;;5.93;3.10;;;;;;;18.69;100.00;99113.09;5091377;28;20230;-85
2022/06/06 05:30:16;;;;;;;3.53;3.10;;;;;;;18.68;100.00;99121.84;5091212;28;20591;-89
2022/06/06 05:33:02;;;;;;;5.43;3.77;;;;;;;18.67;100.00;99122.81;5091195;28;20242;-85
2022/06/06 05:35:59;;;;;;;4.57;3.30;;;;;;;18.61;100.00;99123.47;5091044;28;20207;-89
2022/06/06 05:38:45;;;;;;;5.37;3.60;;;;;;;18.62;100.00;99129.47;5091703;28;20221;-90
2022/06/06 05:41:22;;;;;;;5.27;3.73;;;;;;;18.56;100.00;99123.16;5091471;28;20233;-85
2022/06/06 05:43:58;;;;;;;3.80;3.10;;;;;;;18.52;100.00;99129.63;5091392;28;20693;-85
2022/06/06 05:46:44;;;;;;;3.27;2.90;;;;;;;18.51;100.00;99130.59;5091150;28;20747;-83
2022/06/06 05:49:22;;;;;;;4.13;2.97;;;;;;;18.52;100.00;99132.19;5091427;28;20690;-84
2022/06/06 05:52:04;;;;;;;4.43;3.23;;;;;;;18.50;100.00;99134.13;5090879;28;20231;-89
2022/06/06 05:54:54;;;;;;;4.63;3.17;;;;;;;18.52;100.00;99132.19;5089829;28;20688;-82
2022/06/06 05:57:54;;;;;;;5.97;4.93;;;;;;;18.59;100.00;99130.59;5091071;28;20631;-90
2022/06/06 06:00:26;;;;;;;7.90;4.77;;;;;;;18.55;100.00;99131.88;5091048;28;20696;-83
2022/06/06 06:03:24;;;;;;;6.00;4.93;;;;;;;18.65;100.00;99131.75;5090916;28;20223;-87
2022/06/06 06:06:02;;;;;;;5.10;3.90;;;;;;;18.71;100.00;99136.28;5087175;28;20240;-88
2022/06/06 06:08:43;;;;;;;8.67;6.13;;;;;;;18.91;100.00;99144.56;5091132;28;20247;-86
2022/06/06 06:11:21;;;;;;;6.23;4.97;;;;;;;19.15;100.00;99149.72;5090546;28;20231;-87
2022/06/06 06:14:02;;;;;;;10.03;6.40;;;;;;;19.29;100.00;99147.44;5090867;28;20241;-84
2022/06/06 06:16:32;;;;;;;7.23;5.60;;;;;;;19.43;100.00;99157.09;5090367;28;20235;-86
2022/06/06 06:19:08;;;;;;;15.20;8.93;;;;;;;19.45;100.00;99165.53;5090657;28;20207;-83
2022/06/06 06:21:41;;;;;;;9.87;6.87;;;;;;;19.38;100.00;99167.97;5090346;28;20334;-90
2022/06/06 06:24:09;;;;;;;9.23;6.80;;;;;;;19.34;100.00;99165.88;5090830;28;20273;-90
2022/06/06 06:26:37;;;;;;;15.77;10.00;;;;;;;19.29;100.00;99171.56;5090125;28;20296;-83
2022/06/06 06:29:05;;;;;;;20.70;12.97;;;;;;;19.28;100.00;99169.13;5090447;28;20226;-87
2022/06/06 06:31:43;;;;;;;10.93;8.50;;;;;;;19.25;100.00;99177.22;5089567;28;20240;-87
2022/06/06 06:34:28;;;;;;;6.77;5.63;;;;;;;19.31;100.00;99174.78;5090206;28;20212;-88
2022/06/06 06:37:04;;;;;;;6.67;4.97;;;;;;;19.34;100.00;99178.81;5090093;28;20233;-88
2022/06/06 06:39:50;;;;;;;6.33;5.43;;;;;;;19.42;100.00;99176.22;5089881;28;20306;-85
2022/06/06 06:42:28;;;;;;;7.03;5.70;;;;;;;19.43;100.00;99177.84;5089997;28;20309;-85
2022/06/06 06:45:00;;;;;;;7.60;5.83;;;;;;;19.44;100.00;99190.66;5090057;28;20232;-87
2022/06/06 06:47:30;;;;;;;7.73;6.10;;;;;;;19.31;100.00;99181.75;5089946;28;20231;-88
2022/06/06 06:50:07;;;;;;;7.90;6.00;;;;;;;19.29;100.00;99186.31;5089856;28;20274;-83
2022/06/06 06:52:44;;;;;;;12.20;8.83;;;;;;;19.37;100.00;99183.69;5089800;28;20251;-84
2022/06/06 06:55:21;;;;;;;10.73;8.30;;;;;;;19.39;100.00;99181.75;5089703;28;20217;-84
2022/06/06 06:58:15;;;;;;;8.20;6.30;;;;;;;19.36;100.00;99182.06;5089662;28;20223;-83
2022/06/06 07:00:49;;;;;;;8.00;6.43;;;;;;;19.42;100.00;99189.19;5089865;28;20211;-87
2022/06/06 07:09:33;;;;;;;12.27;8.53;;;;;;;19.48;100.00;99188.53;5026819;28;20210;-87
2022/06/06 07:12:21;;;;;;;14.47;10.23;;;;;;;19.57;100.00;99190.13;5078195;28;20244;-86
2022/06/06 07:15:02;;;;;;;8.80;7.10;;;;;;;19.63;100.00;99186.06;5090450;28;20216;-89
2022/06/06 07:17:34;;;;;;;8.43;6.47;;;;;;;19.80;100.00;99182.47;5089854;28;20320;-89
2022/06/06 07:20:04;;;;;;;8.37;6.20;;;;;;;19.89;98.66;99188.44;5090235;28;20721;-88
2022/06/06 07:22:59;;;;;;;8.80;7.40;;;;;;;20.07;98.72;99186.44;5090118;28;20240;-86
2022/06/06 07:25:22;;;;;;;12.53;8.23;;;;;;;20.19;98.63;99170.44;5089640;28;20303;-88
2022/06/06 07:27:49;;;;;;;10.27;7.67;;;;;;;20.31;98.64;99182.09;5090334;28;20242;-87
2022/06/06 07:30:15;;;;;;;18.40;11.83;;;;;;;20.41;98.22;99187.84;5089819;28;20301;-88
2022/06/06 07:32:49;;;;;;;15.27;10.27;;;;;;;20.49;97.12;99190.41;5089403;28;20230;-87
2022/06/06 07:35:24;;;;;;;8.47;7.10;;;;;;;20.44;97.55;99184.09;5089346;28;20211;-89
2022/06/06 07:38:05;;;;;;;8.70;7.03;;;;;;;20.49;97.17;99185.22;5089775;28;20252;-87
2022/06/06 07:40:41;;;;;;;8.03;6.80;;;;;;;20.52;97.69;99190.09;5088901;28;20205;-89
2022/06/06 07:43:31;;;;;;;9.57;6.60;;;;;;;20.56;96.92;99191.34;5089165;28;20218;-90
2022/06/06 07:46:10;;;;;;;10.10;7.20;;;;;;;20.64;95.55;99193.09;5089140;28;20735;-89
2022/06/06 07:48:49;;;;;;;8.73;7.20;;;;;;;20.68;95.91;99194.38;5089067;28;20206;-90
2022/06/06 07:51:25;;;;;;;7.93;6.77;;;;;;;20.94;97.36;99203.59;5088876;28;20232;-88
2022/06/06 07:54:02;;;;;;;7.00;6.20;;;;;;;21.16;94.57;99204.56;5088552;28;20236;-89
2022/06/06 07:56:36;;;;;;;9.07;7.23;;;;;;;21.16;93.31;99217.56;5089375;28;20254;-90
2022/06/06 07:59:28;;;;;;;8.30;6.93;;;;;;;21.13;93.96;99218.72;5089289;28;20267;-90
2022/06/06 08:02:05;;;;;;;10.17;7.30;;;;;;;21.13;93.57;99217.91;5088837;28;20263;-88
2022/06/06 08:04:43;;;;;;;13.07;10.70;;;;;;;21.23;95.18;99223.66;5088908;28;20255;-88
2022/06/06 08:07:19;;;;;;;13.17;9.47;;;;;;;21.23;94.18;99228.88;5089247;28;20305;-91
2022/06/06 08:10:02;;;;;;;17.37;10.80;;;;;;;21.26;92.87;99223.31;5088984;28;20208;-91
2022/06/06 08:12:44;;;;;;;18.93;11.50;;;;;;;21.33;90.97;99229.44;5088552;28;20241;-87
2022/06/06 08:15:21;;;;;;;8.67;7.13;;;;;;;21.46;91.67;99224.44;5088970;28;20324;-88
2022/06/06 08:18:02;;;;;;;7.87;6.73;;;;;;;21.56;90.99;99229.41;5088386;28;20773;-90
2022/06/06 08:20:37;;;;;;;8.80;6.87;;;;;;;21.63;91.01;99229.50;5088380;28;20217;-89
2022/06/06 08:23:05;;;;;;;10.23;6.67;;;;;;;21.82;90.82;99228.97;5088329;28;20216;-90
2022/06/06 08:25:33;;;;;;;10.20;6.53;;;;;;;21.93;89.83;99232.91;5088707;28;20216;-90
2022/06/06 08:28:02;;;;;;;10.00;7.20;;;;;;;21.98;90.65;99233.16;5088418;28;20211;-88
2022/06/06 08:30:30;;;;;;;10.10;8.17;;;;;;;21.93;90.72;99238.94;5088311;28;20225;-90
2022/06/06 08:32:56;;;;;;;8.97;8.03;;;;;;;21.78;90.45;99230.31;5088351;28;20230;-91
2022/06/06 08:35:34;;;;;;;11.63;9.23;;;;;;;21.75;91.44;99237.66;5088769;28;20220;-88
2022/06/06 08:38:23;;;;;;;14.17;9.47;;;;;;;21.45;92.64;99241.06;5088897;28;20218;-87
2022/06/06 08:41:22;;;;;;;10.70;9.10;;;;;;;21.29;91.05;99254.16;5088067;28;20758;-88
2022/06/06 08:44:01;;;;;;;11.53;9.70;;;;;;;21.15;91.64;99249.75;5088698;28;20207;-88
2022/06/06 08:46:47;;;;;;;12.17;9.13;;;;;;;21.09;90.98;99240.03;5088513;28;20231;-92
2022/06/06 08:52:27;;;;;;;12.00;9.27;;;;;;;20.96;91.22;99238.81;5088411;28;20260;-87
2022/06/06 08:55:23;;;;;;;9.83;8.83;;;;;;;21.01;91.69;99246.91;5088132;28;20334;-89
2022/06/06 08:58:27;;;;;;;11.67;9.50;;;;;;;21.15;90.96;99247.16;5085750;28;20263;-91
2022/06/06 09:01:02;;;;;;;11.63;8.53;;;;;;;21.65;93.13;99243.16;5087727;28;20241;-88
2022/06/06 09:03:54;;;;;;;9.30;8.30;;;;;;;22.23;89.63;99254.56;5088100;28;20224;-87
2022/06/06 16:24:39;;;;;;;10.70;2.30;;;;;;;24.71;54.68;99225.63;5361806;22;20248;-85
2022/06/06 16:27:10;;;;;;;2.15;1.95;;;;;;;24.62;54.53;99221.59;5088688;28;20217;-86
2022/06/06 16:29:41;;;;;;;4.47;2.40;;;;;;;24.63;55.20;99226.59;5088445;28;20226;-83
2022/06/06 16:32:29;;;;;;;2.40;2.20;;;;;;;24.56;56.37;99223.19;5088774;28;20222;-84
2022/06/06 16:34:59;;;;;;;3.05;2.30;;;;;;;24.39;54.33;99227.13;5088461;28;20796;-88
2022/06/06 16:37:56;;;;;;;5.05;2.35;;;;;;;24.32;54.79;99234.16;5089602;28;20303;-87
2022/06/06 16:40:52;;;;;;;6.18;2.30;;;;;;;24.18;54.78;99231.50;5091910;28;20237;-88
2022/06/06 16:50:15;;;;;;;3.97;2.25;;;;;;;23.91;56.41;99234.97;5091799;28;20256;-85
2022/06/06 16:52:59;;;;;;;2.85;2.42;;;;;;;23.83;57.33;99235.94;5091699;28;20631;-86
2022/06/06 16:55:37;;;;;;;4.15;2.40;;;;;;;23.78;57.72;99235.72;5091417;28;20310;-88
2022/06/06 16:58:24;;;;;;;2.70;2.50;;;;;;;23.73;58.31;99225.84;5091904;28;20205;-87
2022/06/06 17:00:54;;;;;;;4.07;2.13;;;;;;;23.70;58.65;99234.06;5091784;28;20479;-86
2022/06/06 17:03:26;;;;;;;2.65;2.45;;;;;;;23.71;57.98;99233.06;5091913;28;20214;-84
2022/06/06 17:09:00;;;;;;;3.05;2.72;;;;;;;23.59;60.69;99238.97;5091686;28;20213;-84
2022/06/06 17:11:45;;;;;;;4.88;2.65;;;;;;;23.46;61.59;99242.31;5091598;28;20221;-84
2022/06/06 17:14:16;;;;;;;3.38;2.90;;;;;;;23.13;62.11;99236.84;5091405;28;20628;-87
2022/06/06 17:16:47;;;;;;;6.18;3.05;;;;;;;23.08;63.46;99234.81;5091426;28;20744;-88
2022/06/06 17:19:38;;;;;;;4.10;3.08;;;;;;;22.95;64.71;99232.06;5091266;28;20234;-87
2022/06/06 17:22:09;;;;;;;3.58;2.72;;;;;;;22.83;65.52;99240.38;5091431;28;20213;-86
2022/06/06 17:24:52;;;;;;;3.30;3.00;;;;;;;22.68;65.82;99234.41;5091578;28;20229;-85
2022/06/06 17:27:53;;;;;;;3.33;3.03;;;;;;;22.60;66.96;99231.91;5091248;28;20202;-84
2022/06/06 17:30:35;;;;;;;7.07;3.10;;;;;;;22.43;68.03;99233.94;5031590;28;20311;-87
2022/06/06 17:33:14;;;;;;;4.05;3.20;;;;;;;22.29;68.29;99240.00;5091164;28;20681;-86
2022/06/06 17:35:54;;;;;;;4.53;3.10;;;;;;;22.21;69.09;99242.72;5091408;28;20295;-87
2022/06/06 17:38:35;;;;;;;9.10;3.40;;;;;;;22.10;69.69;99249.16;5091068;28;20299;-88
2022/06/06 17:41:14;;;;;;;4.27;3.47;;;;;;;22.07;70.53;99252.13;5090994;28;20224;-87
2022/06/06 17:43:51;;;;;;;4.67;3.43;;;;;;;22.01;70.75;99255.44;5091322;28;20227;-85
2022/06/06 17:46:25;;;;;;;3.50;3.20;;;;;;;21.89;71.80;99253.28;5091213;28;20241;-86
2022/06/06 17:49:04;;;;;;;4.23;3.37;;;;;;;21.79;71.55;99257.16;5090009;28;20296;-85
2022/06/06 17:51:45;;;;;;;6.60;3.63;;;;;;;21.67;72.66;99256.78;5090831;28;20233;-86
2022/06/06 17:54:24;;;;;;;4.63;3.67;;;;;;;21.55;72.60;99251.19;5090963;28;20248;-87
2022/06/06 17:56:59;;;;;;;4.53;3.83;;;;;;;21.44;72.41;99262.06;5090826;28;20608;-88
2022/06/06 17:59:52;;;;;;;5.00;3.60;;;;;;;21.40;72.54;99265.97;5091059;28;20311;-85
2022/06/06 18:02:49;;;;;;;4.13;3.60;;;;;;;21.40;72.74;99261.56;5087423;28;20261;-87
2022/06/06 18:05:42;;;;;;;4.30;3.90;;;;;;;21.33;73.28;99270.25;5090589;28;20232;-85
2022/06/06 18:08:38;;;;;;;4.73;3.87;;;;;;;21.33;73.56;99278.84;5090745;28;20764;-85
2022/06/06 18:11:14;;;;;;;4.23;3.50;;;;;;;21.34;73.99;99277.06;5090439;28;20220;-87
2022/06/06 18:14:13;;;;;;;9.83;3.80;;;;;;;21.25;73.79;99274.50;5090626;28;20271;-86
2022/06/06 18:17:01;;;;;;;5.27;3.77;;;;;;;21.23;73.50;99278.28;5090086;28;20260;-85
2022/06/06 18:19:33;;;;;;;4.33;3.77;;;;;;;21.13;73.96;99291.50;5090441;28;20289;-86
2022/06/06 18:22:01;;;;;;;5.10;3.90;;;;;;;21.15;73.18;99288.75;5090673;28;20215;-86
2022/06/06 18:24:31;;;;;;;4.47;3.80;;;;;;;21.17;72.56;99286.78;5090530;28;20239;-88
2022/06/06 18:27:02;;;;;;;4.67;3.53;;;;;;;21.13;73.04;99280.31;5090349;28;20268;-86
2022/06/06 18:29:35;;;;;;;5.50;3.43;;;;;;;21.21;72.05;99288.06;5090408;28;20386;-84
2022/06/06 18:32:04;;;;;;;5.10;3.23;;;;;;;21.19;72.14;99292.63;5090213;28;20234;-85
2022/06/06 18:34:34;;;;;;;5.20;3.40;;;;;;;21.16;70.81;99293.78;5090098;28;20237;-87
2022/06/06 18:37:05;;;;;;;4.33;3.40;;;;;;;21.19;70.14;99293.41;5090239;28;20223;-85
2022/06/06 18:39:45;;;;;;;3.83;3.40;;;;;;;21.17;70.13;99297.16;5090362;28;20747;-86
2022/06/06 18:42:23;;;;;;;4.70;3.30;;;;;;;21.22;70.42;99300.06;5090404;28;20634;-85
2022/06/06 18:44:55;;;;;;;6.73;3.40;;;;;;;21.16;70.10;99295.56;5090020;28;20238;-84
2022/06/06 18:47:30;;;;;;;5.20;3.37;;;;;;;21.16;70.26;99296.38;5090003;28;20208;-84
2022/06/06 18:49:56;;;;;;;5.60;3.40;;;;;;;21.18;70.63;99299.63;5090306;28;20709;-86
2022/06/06 18:52:27;;;;;;;3.57;3.13;;;;;;;21.17;70.04;99303.19;5089589;28;20211;-85
2022/06/06 18:54:59;;;;;;;4.07;3.67;;;;;;;21.13;69.02;99296.72;5089895;28;20229;-86
2022/06/06 18:57:26;;;;;;;7.10;3.60;;;;;;;21.07;68.92;99296.63;5089927;28;20697;-82
2022/06/06 18:59:58;;;;;;;4.93;3.13;;;;;;;21.05;68.41;99306.38;5089754;28;20732;-84
2022/06/06 19:02:28;;;;;;;3.83;2.83;;;;;;;21.04;67.82;99300.38;5089789;28;20216;-86
2022/06/06 19:05:03;;;;;;;3.93;3.00;;;;;;;21.03;67.62;99309.97;5089855;28;20792;-85
2022/06/06 19:07:32;;;;;;;5.40;3.00;;;;;;;20.98;67.68;99311.44;5089680;28;20596;-85
2022/06/06 19:10:10;;;;;;;5.13;2.80;;;;;;;20.97;68.17;99318.44;5089683;28;20298;-86
2022/06/06 19:12:39;;;;;;;5.37;3.30;;;;;;;20.97;68.05;99318.44;5089915;28;20235;-83
2022/06/06 19:15:25;;;;;;;3.83;2.70;;;;;;;20.95;68.31;99315.19;5089728;28;20702;-84
2022/06/06 19:17:57;;;;;;;5.73;3.10;;;;;;;20.93;67.93;99316.34;5089669;28;20211;-88
2022/06/06 19:20:27;;;;;;;4.10;3.13;;;;;;;20.85;68.54;99309.41;5089335;28;20240;-87
2022/06/06 19:22:57;;;;;;;4.20;3.10;;;;;;;20.79;68.31;99310.09;5089685;28;20276;-87
2022/06/06 19:25:25;;;;;;;6.40;3.30;;;;;;;20.79;67.77;99308.28;5089458;28;20228;-84
2022/06/06 19:27:59;;;;;;;3.50;3.20;;;;;;;20.78;68.53;99300.69;5089491;28;20277;-85
2022/06/06 19:30:26;;;;;;;3.57;3.00;;;;;;;20.75;68.58;99306.22;5089412;28;20289;-84
2022/06/06 19:32:52;;;;;;;5.87;2.93;;;;;;;20.76;68.23;99320.81;5089271;28;20662;-87
2022/06/06 19:35:23;;;;;;;3.93;3.20;;;;;;;20.67;68.48;99311.47;5089064;28;20243;-84
2022/06/06 19:37:50;;;;;;;3.40;2.90;;;;;;;20.65;68.87;99314.22;5089198;28;20266;-88
2022/06/06 19:40:31;;;;;;;3.77;3.03;;;;;;;20.63;69.52;99312.78;5089316;28;20241;-85
2022/06/06 19:43:01;;;;;;;4.37;3.20;;;;;;;20.62;69.29;99309.34;5089263;28;20249;-83
2022/06/06 19:45:32;;;;;;;4.17;3.20;;;;;;;20.61;68.45;99314.75;5089124;28;20298;-86